Time;durP1;ratioP1;P1;durP2;ratioP2;P2;SDS_P1;SDS_P2;PMS_P1;PMS_P2;Temp;Humidity;BMP_temperature;BMP_pressure;BME280_temperature;BME280_humidity;BME280_pressure;Samples;Min_cycle;Max_cycle;Signal;HPM_P1;HPM_P2
2022/10/03 00:02:08;;;;;;;6.53;3.10;;;15.20;99.90;;;;;;4972664;28;20038;-68
2022/10/03 00:05:01;;;;;;;11.55;2.70;;;15.20;99.90;;;;;;5005623;28;20041;-68
2022/10/03 00:07:30;;;;;;;6.82;2.97;;;15.10;99.90;;;;;;5041067;28;20060;-68
2022/10/03 00:10:07;;;;;;;8.23;3.03;;;15.20;99.90;;;;;;5036820;28;20488;-68
2022/10/03 00:12:51;;;;;;;11.00;3.00;;;15.30;99.90;;;;;;5033070;28;20154;-68
2022/10/03 00:15:24;;;;;;;6.57;2.92;;;15.20;99.90;;;;;;5032840;28;20442;-68
2022/10/03 00:18:10;;;;;;;4.95;2.88;;;15.30;99.90;;;;;;5032947;28;20112;-69
2022/10/03 00:20:45;;;;;;;5.30;2.80;;;15.30;99.90;;;;;;5032932;28;20045;-68
2022/10/03 00:23:16;;;;;;;6.47;3.13;;;15.30;99.90;;;;;;5032873;28;20033;-68
2022/10/03 00:26:26;;;;;;;7.50;2.72;;;15.20;99.90;;;;;;5032845;28;20469;-68
2022/10/03 00:29:13;;;;;;;6.07;2.72;;;15.20;99.90;;;;;;5030687;28;20025;-68
2022/10/03 00:31:51;;;;;;;6.43;3.17;;;15.10;99.90;;;;;;5033195;28;20052;-68
2022/10/03 00:34:41;;;;;;;5.03;2.47;;;15.10;99.90;;;;;;5032604;28;20025;-68
2022/10/03 00:37:32;;;;;;;6.35;2.97;;;15.20;99.90;;;;;;5030072;28;20037;-68
2022/10/03 00:40:23;;;;;;;7.90;2.67;;;15.20;99.90;;;;;;5032550;28;20049;-69
2022/10/03 00:43:03;;;;;;;7.60;2.50;;;15.20;99.90;;;;;;5032537;28;20029;-68
2022/10/03 00:46:02;;;;;;;6.70;3.28;;;15.20;99.90;;;;;;5032272;28;20533;-69
2022/10/03 00:48:47;;;;;;;6.95;2.67;;;15.30;99.90;;;;;;5032437;28;20037;-68
2022/10/03 00:51:50;;;;;;;7.90;3.40;;;15.30;99.90;;;;;;5032523;28;20031;-68
2022/10/03 00:55:10;;;;;;;6.47;2.65;;;15.30;99.90;;;;;;5032198;28;20480;-68
2022/10/03 00:57:49;;;;;;;6.40;2.25;;;15.30;99.90;;;;;;4951703;29;20035;-68
2022/10/03 01:00:46;;;;;;;4.13;1.70;;;15.30;99.90;;;;;;4952227;29;20069;-68
2022/10/03 01:03:47;;;;;;;7.82;2.08;;;15.30;99.90;;;;;;4935587;29;20470;-69
2022/10/03 01:06:20;;;;;;;6.25;1.98;;;15.20;99.90;;;;;;4951747;29;20163;-68
2022/10/03 01:09:27;;;;;;;5.75;1.75;;;15.30;99.90;;;;;;4951233;29;20546;-68
2022/10/03 01:11:59;;;;;;;7.40;2.25;;;15.20;99.90;;;;;;4913900;29;20912;-68
2022/10/03 01:15:15;;;;;;;5.85;2.58;;;15.10;99.90;;;;;;4913825;29;20080;-68
2022/10/03 01:18:00;;;;;;;6.20;2.10;;;15.10;99.90;;;;;;4876039;29;20065;-68
2022/10/03 01:20:46;;;;;;;4.97;2.03;;;15.00;99.90;;;;;;4869654;29;20097;-69
2022/10/03 01:23:24;;;;;;;3.67;1.92;;;15.00;99.90;;;;;;4876286;29;20041;-69
2022/10/03 01:25:56;;;;;;;3.90;1.95;;;15.00;99.90;;;;;;4876339;29;20128;-69
2022/10/03 01:31:52;;;;;;;4.10;1.80;;;15.00;99.90;;;;;;4897256;29;20060;-69
2022/10/03 01:34:36;;;;;;;5.97;2.55;;;15.00;99.90;;;;;;4913769;29;20523;-70
2022/10/03 01:37:16;;;;;;;5.13;1.95;;;14.90;99.90;;;;;;4913588;29;20122;-69
2022/10/03 01:39:44;;;;;;;8.32;2.05;;;14.80;99.90;;;;;;4914050;29;20060;-69
2022/10/03 01:42:38;;;;;;;4.03;2.38;;;14.90;99.90;;;;;;4917424;29;20107;-70
2022/10/03 01:45:16;;;;;;;4.80;2.00;;;15.00;99.90;;;;;;4925151;29;20039;-70
2022/10/03 01:48:11;;;;;;;4.32;1.85;;;14.90;99.90;;;;;;4955279;28;20031;-69
2022/10/03 01:50:43;;;;;;;3.00;1.88;;;14.90;99.90;;;;;;4955456;29;20153;-70
2022/10/03 01:53:27;;;;;;;9.50;2.55;;;14.80;99.90;;;;;;4955420;29;20057;-69
2022/10/03 01:56:14;;;;;;;6.22;2.88;;;14.70;99.90;;;;;;5019702;28;20079;-70
2022/10/03 01:58:40;;;;;;;3.88;2.22;;;14.60;99.90;;;;;;5035333;28;20033;-69
2022/10/03 02:01:27;;;;;;;5.38;2.05;;;14.50;99.90;;;;;;5035866;28;20032;-69
2022/10/03 02:04:14;;;;;;;4.45;2.28;;;14.40;99.90;;;;;;5035498;28;20497;-69
2022/10/03 02:07:22;;;;;;;6.05;1.63;;;14.30;99.90;;;;;;5036680;28;20057;-68
2022/10/03 02:09:56;;;;;;;6.47;2.45;;;14.30;99.90;;;;;;4978681;28;20062;-69
2022/10/03 02:12:40;;;;;;;1.90;1.55;;;14.10;99.90;;;;;;4974154;28;20039;-69
2022/10/03 02:15:22;;;;;;;5.80;1.83;;;14.10;99.90;;;;;;4973959;28;20042;-68
2022/10/03 02:18:00;;;;;;;3.78;2.05;;;14.10;99.90;;;;;;4974303;28;20441;-69
2022/10/03 02:21:12;;;;;;;4.10;1.85;;;14.00;99.90;;;;;;4974179;28;20043;-69
2022/10/03 02:23:43;;;;;;;6.95;2.22;;;14.00;99.90;;;;;;4916252;29;20036;-69
2022/10/03 02:26:45;;;;;;;5.65;2.22;;;14.00;99.90;;;;;;4916787;29;20040;-69
2022/10/03 02:29:40;;;;;;;2.65;2.08;;;14.00;99.90;;;;;;4916407;29;20032;-70
2022/10/03 02:32:40;;;;;;;7.80;2.78;;;14.00;99.90;;;;;;4916571;29;20051;-70
2022/10/03 02:35:56;;;;;;;4.70;2.30;;;14.00;99.90;;;;;;4916346;29;20063;-70
2022/10/03 02:38:40;;;;;;;4.75;2.10;;;14.00;99.90;;;;;;4878434;29;20499;-70
2022/10/03 02:41:38;;;;;;;4.45;2.28;;;13.90;99.90;;;;;;4878990;29;20052;-70
2022/10/03 02:44:26;;;;;;;3.72;1.88;;;14.00;99.90;;;;;;4878650;29;20437;-70
2022/10/03 02:47:24;;;;;;;4.50;1.88;;;14.00;99.90;;;;;;4841617;29;20520;-69
2022/10/03 02:49:58;;;;;;;4.13;1.60;;;14.00;99.90;;;;;;4837268;29;20090;-70
2022/10/03 02:52:51;;;;;;;3.05;1.90;;;13.90;99.90;;;;;;4840928;29;20042;-70
2022/10/03 02:55:20;;;;;;;;;;;13.90;99.90;;;;;;4842131;29;20038;-70
2022/10/03 02:58:06;;;;;;;6.03;2.10;;;14.00;99.90;;;;;;4841137;29;20322;-70
2022/10/03 03:00:43;;;;;;;4.85;2.20;;;14.00;99.90;;;;;;4867050;29;20535;-70
2022/10/03 03:03:30;;;;;;;4.55;1.95;;;14.10;99.90;;;;;;4878418;29;20100;-70
2022/10/03 03:06:16;;;;;;;5.18;2.60;;;14.10;99.90;;;;;;4877951;29;20124;-70
2022/10/03 03:09:24;;;;;;;3.20;2.17;;;14.20;99.90;;;;;;4864922;29;20047;-70
2022/10/03 03:12:22;;;;;;;5.55;2.28;;;14.20;99.90;;;;;;4877984;29;20587;-70
2022/10/03 03:14:53;;;;;;;2.80;1.98;;;14.20;99.90;;;;;;4915866;28;20043;-70
2022/10/03 03:17:38;;;;;;;3.45;2.38;;;14.30;99.90;;;;;;4972708;28;20045;-70
2022/10/03 03:20:13;;;;;;;5.07;2.45;;;14.20;99.90;;;;;;4972757;28;20043;-70
2022/10/03 03:23:23;;;;;;;4.63;2.42;;;14.20;99.90;;;;;;4973077;28;20097;-70
2022/10/03 03:26:27;;;;;;;11.43;2.85;;;14.20;99.90;;;;;;5033895;28;20021;-70
2022/10/03 03:29:05;;;;;;;6.55;3.17;;;14.20;99.90;;;;;;5033606;28;20032;-69
2022/10/03 03:32:02;;;;;;;10.07;3.17;;;14.20;99.90;;;;;;5034206;28;20396;-69
2022/10/03 03:35:06;;;;;;;9.80;3.28;;;14.20;99.90;;;;;;4953409;29;20118;-70
2022/10/03 03:37:53;;;;;;;7.75;3.45;;;14.10;99.90;;;;;;4952595;29;20038;-70
2022/10/03 03:40:37;;;;;;;5.50;3.67;;;14.10;99.90;;;;;;4969136;28;20086;-70
2022/10/03 03:43:21;;;;;;;8.88;3.95;;;14.00;99.90;;;;;;4953556;29;20031;-71
2022/10/03 03:46:09;;;;;;;7.35;3.60;;;14.00;99.90;;;;;;4953336;29;20094;-70
2022/10/03 03:48:58;;;;;;;7.07;3.53;;;14.00;99.90;;;;;;4952950;29;20031;-69
2022/10/03 03:52:18;;;;;;;10.73;3.88;;;14.00;99.90;;;;;;4953287;29;20482;-70
2022/10/03 03:55:00;;;;;;;6.40;2.63;;;14.00;99.90;;;;;;4914945;29;20063;-70
2022/10/03 03:57:51;;;;;;;8.05;3.65;;;13.90;99.90;;;;;;4915005;29;20531;-70
2022/10/03 04:00:30;;;;;;;9.73;3.28;;;13.90;99.90;;;;;;4914985;29;20491;-70
2022/10/03 04:04:06;;;;;;;7.50;2.60;;;13.90;99.90;;;;;;4914021;29;20055;-70
2022/10/03 04:06:50;;;;;;;6.22;3.20;;;13.90;99.90;;;;;;4783516;30;20504;-71
2022/10/03 04:09:18;;;;;;;7.20;3.42;;;13.80;99.90;;;;;;4777061;30;20066;-70
2022/10/03 04:12:08;;;;;;;6.38;3.70;;;13.80;99.90;;;;;;4800850;29;20035;-65
2022/10/03 04:14:44;;;;;;;8.23;2.83;;;13.80;99.90;;;;;;4803357;29;20053;-67
2022/10/03 04:20:37;;;;;;;4.57;2.85;;;13.80;99.90;;;;;;4803469;29;20129;-65
2022/10/03 04:23:46;;;;;;;6.05;3.22;;;13.80;99.90;;;;;;4803633;29;20070;-68
2022/10/03 04:26:30;;;;;;;5.50;3.28;;;13.80;99.90;;;;;;4767557;30;20124;-69
2022/10/03 04:29:23;;;;;;;8.43;3.00;;;13.70;99.90;;;;;;4780074;29;20043;-67
2022/10/03 04:31:55;;;;;;;7.47;3.13;;;13.70;99.90;;;;;;4785353;30;20139;-66
2022/10/03 04:34:35;;;;;;;6.50;3.15;;;13.80;99.90;;;;;;4785065;29;20110;-69
2022/10/03 04:37:13;;;;;;;4.28;3.05;;;13.70;99.90;;;;;;4785072;29;20054;-68
2022/10/03 04:39:47;;;;;;;4.88;2.92;;;13.70;99.90;;;;;;4816556;29;20061;-69
2022/10/03 04:42:22;;;;;;;6.40;2.83;;;13.70;99.90;;;;;;4948013;29;20048;-70
2022/10/03 04:45:00;;;;;;;7.88;3.25;;;13.70;99.90;;;;;;4951930;29;20039;-69
2022/10/03 04:47:41;;;;;;;6.82;2.70;;;13.70;99.90;;;;;;4952277;29;20090;-70
2022/10/03 04:50:29;;;;;;;5.22;3.47;;;13.80;99.90;;;;;;4952312;29;20050;-68
2022/10/03 04:53:17;;;;;;;4.43;2.63;;;13.70;99.90;;;;;;4952465;29;20120;-70
2022/10/03 04:55:56;;;;;;;6.88;3.53;;;13.70;99.90;;;;;;4951913;29;20475;-69
2022/10/03 04:58:40;;;;;;;5.85;3.35;;;13.70;99.90;;;;;;4952085;29;20127;-69
2022/10/03 05:01:21;;;;;;;4.50;2.80;;;13.70;99.90;;;;;;4948622;28;20552;-69
2022/10/03 05:03:53;;;;;;;7.35;2.55;;;13.70;99.90;;;;;;5030263;28;20040;-69
2022/10/03 05:06:57;;;;;;;5.70;3.17;;;13.70;99.90;;;;;;5031722;28;20124;-65
2022/10/03 05:09:48;;;;;;;5.97;3.25;;;13.70;99.90;;;;;;5036323;28;20123;-70
2022/10/03 05:12:15;;;;;;;5.72;2.88;;;13.70;99.90;;;;;;5032580;28;20376;-64
2022/10/03 05:15:06;;;;;;;4.28;2.78;;;13.70;99.90;;;;;;5032272;28;20028;-67
2022/10/03 05:17:47;;;;;;;7.13;3.25;;;13.80;99.90;;;;;;5036336;28;20025;-68
2022/10/03 05:20:25;;;;;;;3.33;2.28;;;14.00;99.90;;;;;;5035744;28;20395;-70
2022/10/03 05:23:04;;;;;;;6.15;2.88;;;13.90;99.90;;;;;;5036255;28;20071;-65
2022/10/03 05:26:10;;;;;;;7.82;3.03;;;14.10;99.90;;;;;;5035753;28;20534;-69
2022/10/03 05:28:45;;;;;;;5.32;3.00;;;14.10;99.90;;;;;;5036147;28;20052;-69
2022/10/03 05:31:48;;;;;;;4.95;2.60;;;14.10;99.90;;;;;;5035897;28;20030;-68
2022/10/03 05:34:26;;;;;;;6.88;3.10;;;14.00;99.90;;;;;;5025625;28;20029;-65
2022/10/03 05:37:07;;;;;;;5.30;2.63;;;14.00;99.90;;;;;;5034205;28;20025;-66
2022/10/03 05:39:50;;;;;;;5.05;3.30;;;14.00;99.90;;;;;;5017118;28;20404;-69
2022/10/03 05:42:40;;;;;;;4.80;2.67;;;14.00;99.90;;;;;;5035930;28;20096;-69
2022/10/03 05:45:24;;;;;;;5.55;2.83;;;14.10;99.90;;;;;;5035688;28;20388;-69
2022/10/03 05:48:06;;;;;;;7.25;3.20;;;14.00;99.90;;;;;;5035604;28;20029;-69
2022/10/03 05:50:59;;;;;;;5.85;3.08;;;14.10;99.90;;;;;;5035318;28;20049;-69
2022/10/03 05:53:49;;;;;;;7.80;3.40;;;14.20;99.90;;;;;;5035630;28;20420;-69
2022/10/03 05:56:20;;;;;;;5.28;3.13;;;14.40;99.90;;;;;;5035257;28;20480;-69
2022/10/03 05:59:05;;;;;;;6.50;3.33;;;14.60;99.90;;;;;;5035472;28;20501;-69
2022/10/03 06:01:49;;;;;;;8.32;2.85;;;14.60;99.90;;;;;;5035343;28;20037;-68
2022/10/03 06:04:30;;;;;;;6.13;2.97;;;14.80;99.90;;;;;;5035211;28;20048;-69
2022/10/03 06:07:28;;;;;;;7.72;3.78;;;14.70;99.90;;;;;;5039259;28;20048;-69
2022/10/03 06:10:03;;;;;;;8.95;4.20;;;14.80;99.90;;;;;;4977808;28;20133;-69
2022/10/03 06:13:13;;;;;;;7.03;3.92;;;14.90;99.90;;;;;;4974325;28;20031;-69
2022/10/03 06:15:41;;;;;;;4.65;3.65;;;15.00;99.90;;;;;;4969760;28;20405;-69
2022/10/03 06:18:25;;;;;;;5.68;3.28;;;15.10;99.90;;;;;;4974342;28;20027;-69
2022/10/03 06:21:04;;;;;;;10.20;3.88;;;15.10;99.90;;;;;;4973946;28;20043;-69
2022/10/03 06:24:00;;;;;;;7.63;3.75;;;15.10;99.90;;;;;;4974162;28;20124;-69
2022/10/03 06:26:40;;;;;;;5.70;3.25;;;15.20;99.90;;;;;;4973285;28;20093;-69
2022/10/03 06:29:35;;;;;;;7.07;3.88;;;15.30;99.90;;;;;;4979956;28;20150;-69
2022/10/03 06:32:30;;;;;;;5.53;3.60;;;15.30;99.90;;;;;;4900011;29;20071;-68
2022/10/03 06:35:15;;;;;;;9.77;4.03;;;15.40;99.90;;;;;;4897103;29;20036;-69
2022/10/03 06:37:55;;;;;;;8.90;3.85;;;15.50;99.90;;;;;;4897597;29;20098;-68
2022/10/03 06:40:40;;;;;;;7.25;4.10;;;15.60;99.90;;;;;;4896909;29;20048;-69
2022/10/03 06:43:38;;;;;;;8.80;4.40;;;15.60;99.90;;;;;;4897549;29;20048;-69
2022/10/03 06:46:03;;;;;;;6.40;3.70;;;15.70;99.90;;;;;;4913024;29;20055;-69
2022/10/03 06:48:38;;;;;;;6.15;3.40;;;15.80;99.90;;;;;;4935221;29;20052;-69
2022/10/03 06:51:23;;;;;;;7.97;3.45;;;16.00;99.90;;;;;;4935162;29;20530;-69
2022/10/03 06:54:33;;;;;;;6.28;2.95;;;16.20;99.90;;;;;;4935148;29;20123;-68
2022/10/03 06:57:34;;;;;;;4.43;3.33;;;15.90;99.90;;;;;;4916224;29;20051;-69
2022/10/03 07:00:14;;;;;;;6.10;2.95;;;16.00;99.90;;;;;;4859883;29;20607;-68
2022/10/03 07:03:19;;;;;;;6.93;3.20;;;16.10;99.90;;;;;;4859494;29;20109;-69
2022/10/03 07:05:47;;;;;;;6.55;2.95;;;16.30;99.90;;;;;;4821909;29;20606;-68
2022/10/03 07:08:35;;;;;;;9.95;2.75;;;16.40;99.90;;;;;;4816619;29;20042;-68
2022/10/03 07:11:19;;;;;;;3.55;2.42;;;16.40;99.90;;;;;;4858672;29;20037;-68
2022/10/03 07:14:19;;;;;;;5.40;3.00;;;16.20;99.90;;;;;;4858859;29;20461;-68
2022/10/03 07:17:04;;;;;;;4.50;2.70;;;15.90;99.90;;;;;;4858768;29;20473;-68
2022/10/03 07:19:57;;;;;;;5.57;2.55;;;15.70;99.90;;;;;;4858671;29;20513;-69
2022/10/03 07:23:17;;;;;;;9.73;2.63;;;15.70;99.90;;;;;;4858870;29;20042;-68
2022/10/03 07:26:04;;;;;;;7.05;3.17;;;15.80;99.90;;;;;;4840432;29;20030;-68
2022/10/03 07:28:32;;;;;;;6.07;2.88;;;16.20;99.90;;;;;;4840724;29;20525;-69
2022/10/03 07:31:16;;;;;;;6.30;2.90;;;16.40;99.90;;;;;;4840903;29;20153;-68
2022/10/03 07:33:54;;;;;;;4.05;2.45;;;16.40;99.90;;;;;;4840754;29;20045;-68
2022/10/03 07:40:02;;;;;;;3.13;1.80;;;16.40;99.90;;;;;;4877169;29;20073;-68
2022/10/03 07:42:50;;;;;;;4.97;2.45;;;16.30;99.90;;;;;;4911813;29;20094;-68
2022/10/03 07:45:33;;;;;;;3.65;2.00;;;16.40;99.90;;;;;;4953354;29;20118;-69
2022/10/03 07:48:32;;;;;;;4.25;2.13;;;16.40;99.90;;;;;;4952846;29;20398;-68
2022/10/03 07:51:20;;;;;;;4.30;2.10;;;16.30;99.90;;;;;;4952624;29;20031;-68
2022/10/03 07:54:47;;;;;;;4.60;2.03;;;16.50;99.90;;;;;;4953101;29;20066;-68
2022/10/03 07:57:30;;;;;;;5.85;2.13;;;16.50;99.90;;;;;;4877431;29;20053;-68
2022/10/03 08:00:02;;;;;;;4.47;2.03;;;16.60;99.90;;;;;;4930796;29;20106;-68
2022/10/03 08:03:14;;;;;;;4.32;2.25;;;16.60;99.90;;;;;;4952767;28;20034;-68
2022/10/03 08:05:58;;;;;;;2.83;1.92;;;16.70;99.90;;;;;;4952458;29;20047;-68
2022/10/03 08:08:51;;;;;;;3.28;1.95;;;16.90;99.90;;;;;;4948918;29;20455;-68
2022/10/03 08:11:55;;;;;;;6.60;1.80;;;17.00;99.90;;;;;;4952314;28;20453;-69
2022/10/03 08:14:47;;;;;;;;;;;17.00;99.90;;;;;;4953070;28;20027;-69
2022/10/03 08:17:34;;;;;;;2.67;1.80;;;17.00;99.90;;;;;;4951416;28;20328;-68
2022/10/03 08:20:38;;;;;;;3.67;1.90;;;16.90;99.90;;;;;;4952519;29;20126;-68
2022/10/03 08:23:07;;;;;;;3.92;1.20;;;17.00;99.90;;;;;;4933214;29;20043;-68
2022/10/03 08:26:10;;;;;;;3.97;1.92;;;17.10;99.90;;;;;;4933383;29;20510;-68
2022/10/03 08:28:57;;;;;;;4.30;2.00;;;17.40;99.90;;;;;;4857870;29;20048;-69
2022/10/03 08:31:25;;;;;;;5.28;1.75;;;17.40;99.90;;;;;;4848056;29;20034;-69
2022/10/03 08:34:00;;;;;;;7.07;1.88;;;17.10;99.90;;;;;;4842266;29;20037;-69
2022/10/03 08:36:50;;;;;;;8.10;2.53;;;16.90;99.90;;;;;;4858231;29;20042;-68
2022/10/03 08:39:59;;;;;;;3.75;1.60;;;17.00;99.90;;;;;;4857669;29;20053;-69
2022/10/03 08:42:43;;;;;;;3.60;1.98;;;17.10;99.90;;;;;;4857883;29;20064;-69
2022/10/03 08:45:43;;;;;;;4.03;1.55;;;17.00;99.90;;;;;;4857639;29;20181;-69
2022/10/03 08:48:17;;;;;;;3.00;1.50;;;17.20;99.90;;;;;;4857834;29;20043;-68
2022/10/03 08:50:43;;;;;;;4.03;1.88;;;17.50;99.90;;;;;;4857577;29;20045;-68
2022/10/03 08:53:11;;;;;;;2.97;1.65;;;17.60;99.90;;;;;;4857511;29;20038;-69
2022/10/03 08:55:59;;;;;;;9.75;2.00;;;17.40;99.90;;;;;;4857365;29;20037;-69
2022/10/03 08:59:01;;;;;;;4.28;1.98;;;17.30;99.90;;;;;;4856825;29;20132;-68
2022/10/03 09:02:05;;;;;;;4.93;2.22;;;17.40;99.90;;;;;;4932207;29;20031;-68
2022/10/03 09:04:34;;;;;;;3.50;2.05;;;17.70;99.90;;;;;;4945874;28;20037;-69
2022/10/03 09:07:18;;;;;;;2.92;1.52;;;17.90;99.90;;;;;;5031452;28;20546;-68
2022/10/03 09:10:06;;;;;;;4.35;2.10;;;17.90;99.90;;;;;;5031389;28;20049;-68
2022/10/03 09:12:51;;;;;;;2.25;1.42;;;18.10;99.90;;;;;;5031861;28;20112;-68
2022/10/03 09:16:05;;;;;;;3.60;1.38;;;17.70;99.90;;;;;;5031665;28;20018;-69
2022/10/03 09:18:50;;;;;;;2.47;1.38;;;17.60;99.90;;;;;;4951255;29;20043;-69
2022/10/03 09:21:33;;;;;;;7.35;1.88;;;17.90;99.90;;;;;;4951555;29;20047;-68
2022/10/03 09:24:07;;;;;;;4.35;1.55;;;18.00;99.90;;;;;;4937896;29;20557;-69
2022/10/03 09:26:40;;;;;;;5.47;1.63;;;17.80;99.90;;;;;;4951663;28;20426;-68
2022/10/03 09:29:30;;;;;;;2.97;1.30;;;17.90;99.90;;;;;;4950919;29;20560;-69
2022/10/03 09:32:46;;;;;;;3.28;1.67;;;18.10;99.90;;;;;;4936797;28;20070;-68
2022/10/03 09:35:27;;;;;;;2.35;1.35;;;18.20;99.90;;;;;;4951021;29;20053;-68
2022/10/03 09:38:18;;;;;;;3.00;1.00;;;18.40;99.90;;;;;;4951324;29;20035;-69
2022/10/03 09:41:04;;;;;;;3.15;1.25;;;18.20;99.90;;;;;;4951261;29;20047;-69
2022/10/03 09:43:45;;;;;;;2.05;1.10;;;18.10;99.90;;;;;;4950175;29;20032;-68
2022/10/03 09:46:45;;;;;;;2.70;1.48;;;18.40;99.90;;;;;;4951273;29;20445;-68
2022/10/03 09:49:30;;;;;;;4.57;1.58;;;18.40;99.90;;;;;;4951107;29;20039;-69
2022/10/03 09:52:24;;;;;;;1.55;1.00;;;18.30;99.90;;;;;;4951236;29;20040;-69
2022/10/03 09:55:10;;;;;;;3.60;1.70;;;18.20;99.90;;;;;;4987443;28;20069;-69
2022/10/03 09:57:39;;;;;;;5.00;1.48;;;18.10;99.90;;;;;;5031735;28;20032;-69
2022/10/03 10:00:21;;;;;;;3.13;1.20;;;18.10;99.90;;;;;;5031749;28;20037;-69
2022/10/03 10:03:11;;;;;;;;;;;18.10;99.90;;;;;;5035686;28;20404;-69
2022/10/03 10:05:57;;;;;;;4.80;1.50;;;18.00;99.90;;;;;;5035230;28;19916;-68
2022/10/03 10:08:58;;;;;;;1.52;1.27;;;17.90;99.90;;;;;;5035381;28;20105;-69
2022/10/03 10:11:58;;;;;;;2.70;1.40;;;17.90;99.90;;;;;;5035344;28;20087;-68
2022/10/03 10:14:55;;;;;;;4.30;1.65;;;18.00;99.90;;;;;;5035367;28;20461;-69
2022/10/03 10:17:33;;;;;;;3.47;1.52;;;18.00;99.90;;;;;;5035636;28;20415;-68
2022/10/03 10:20:23;;;;;;;3.38;1.77;;;18.10;99.90;;;;;;5035013;28;20065;-68
2022/10/03 10:22:55;;;;;;;2.35;1.20;;;18.00;99.90;;;;;;5035259;28;20045;-68
2022/10/03 10:25:35;;;;;;;7.75;1.63;;;17.80;99.90;;;;;;5031861;28;20072;-68
2022/10/03 10:28:01;;;;;;;2.83;1.30;;;17.70;99.90;;;;;;5025967;28;20087;-69
2022/10/03 10:30:49;;;;;;;4.53;1.50;;;17.60;99.90;;;;;;5034868;28;20021;-68
2022/10/03 10:33:18;;;;;;;5.68;1.65;;;17.50;99.90;;;;;;5034290;28;20483;-69
2022/10/03 10:36:12;;;;;;;10.75;1.58;;;17.60;99.90;;;;;;5031841;28;20495;-68
2022/10/03 10:39:15;;;;;;;2.03;1.52;;;17.70;99.90;;;;;;5032720;28;20048;-67
2022/10/03 10:42:05;;;;;;;8.32;1.40;;;18.10;99.90;;;;;;5026313;28;20065;-68
2022/10/03 10:44:55;;;;;;;4.65;1.58;;;18.20;99.90;;;;;;5034412;28;20156;-68
2022/10/03 10:47:53;;;;;;;3.40;1.30;;;18.30;99.90;;;;;;5034487;28;20025;-69
2022/10/03 10:50:56;;;;;;;1.42;1.13;;;18.40;99.90;;;;;;5033815;28;20128;-68
2022/10/03 10:53:41;;;;;;;3.00;1.10;;;18.60;99.90;;;;;;5034171;28;20045;-69
2022/10/03 10:56:13;;;;;;;1.85;1.00;;;18.80;99.90;;;;;;5034080;28;20030;-68
2022/10/03 10:58:39;;;;;;;3.30;1.42;;;19.00;99.90;;;;;;5034185;28;20041;-69
2022/10/03 11:01:19;;;;;;;2.35;1.23;;;19.00;99.90;;;;;;5033773;28;20451;-68
2022/10/03 11:04:04;;;;;;;5.88;2.00;;;19.10;99.90;;;;;;5033930;28;20095;-69
2022/10/03 11:06:29;;;;;;;2.20;1.13;;;18.80;99.90;;;;;;5034234;28;20037;-67
2022/10/03 11:09:17;;;;;;;3.38;1.27;;;18.70;99.90;;;;;;5034056;28;20056;-68
2022/10/03 11:12:05;;;;;;;4.43;1.08;;;18.60;99.90;;;;;;5034026;28;20068;-68
2022/10/03 11:14:52;;;;;;;2.15;0.95;;;18.60;99.90;;;;;;5033513;28;20071;-69
2022/10/03 11:18:08;;;;;;;2.47;1.20;;;18.30;99.90;;;;;;5033823;28;20057;-68
2022/10/03 11:20:56;;;;;;;2.83;1.15;;;18.40;99.90;;;;;;4938688;29;20047;-68
2022/10/03 11:23:46;;;;;;;4.88;1.27;;;18.30;99.90;;;;;;4952945;29;20113;-69
2022/10/03 11:26:48;;;;;;;2.53;1.05;;;18.20;99.90;;;;;;4953738;29;20170;-69
2022/10/03 11:29:55;;;;;;;3.92;1.60;;;18.10;99.90;;;;;;4953283;29;20035;-68
2022/10/03 11:32:57;;;;;;;4.03;1.50;;;18.20;99.90;;;;;;4915354;29;20044;-68
2022/10/03 11:36:00;;;;;;;4.77;1.40;;;18.10;99.90;;;;;;4915361;29;20083;-68
2022/10/03 11:38:31;;;;;;;2.28;1.50;;;18.00;99.90;;;;;;4915131;29;20287;-68
2022/10/03 11:41:00;;;;;;;3.88;1.30;;;17.80;99.90;;;;;;4914731;29;20051;-69
2022/10/03 11:43:56;;;;;;;5.85;1.15;;;17.80;99.90;;;;;;4915203;29;20040;-69
2022/10/03 11:46:40;;;;;;;3.72;1.27;;;17.60;99.90;;;;;;4915168;29;20028;-69
2022/10/03 11:49:36;;;;;;;4.13;1.70;;;17.30;99.90;;;;;;4914957;29;20036;-68
2022/10/03 11:52:38;;;;;;;3.78;1.40;;;17.00;99.90;;;;;;4915271;29;20586;-68
2022/10/03 11:55:04;;;;;;;4.50;1.60;;;17.00;99.90;;;;;;4914694;29;20547;-68
2022/10/03 11:57:37;;;;;;;2.47;1.25;;;16.80;99.90;;;;;;4951196;28;20058;-68
2022/10/03 12:00:16;;;;;;;4.80;1.90;;;16.70;99.90;;;;;;4972375;28;20141;-68
2022/10/03 12:02:42;;;;;;;3.00;1.55;;;16.80;99.90;;;;;;4992751;28;20413;-68
2022/10/03 12:05:30;;;;;;;3.00;1.38;;;16.70;99.90;;;;;;5033084;28;20361;-68
2022/10/03 12:11:27;;;;;;;1.85;1.42;;;16.80;99.90;;;;;;5010055;28;20080;-68
2022/10/03 12:14:08;;;;;;;5.53;1.88;;;17.00;99.90;;;;;;5010399;28;20124;-67
2022/10/03 12:16:58;;;;;;;4.15;1.58;;;17.00;99.90;;;;;;5011069;28;20520;-68
2022/10/03 12:19:33;;;;;;;2.55;1.35;;;17.30;99.90;;;;;;5010045;28;20072;-68
2022/10/03 12:22:21;;;;;;;1.33;1.23;;;17.40;99.90;;;;;;5006949;28;20563;-68
2022/10/03 12:24:48;;;;;;;2.38;1.17;;;17.60;99.90;;;;;;4990068;28;20042;-67
2022/10/03 12:27:17;;;;;;;2.72;1.60;;;17.80;99.90;;;;;;5003392;28;20018;-67
2022/10/03 12:29:53;;;;;;;4.75;1.20;;;18.20;99.90;;;;;;4989187;28;20469;-68
2022/10/03 12:32:28;;;;;;;4.15;1.35;;;18.30;99.90;;;;;;4986461;28;20085;-68
2022/10/03 12:34:56;;;;;;;6.60;1.50;;;18.40;99.90;;;;;;4988231;28;20033;-68
2022/10/03 12:37:37;;;;;;;1.75;0.90;;;18.20;99.90;;;;;;5002909;28;20033;-68
2022/10/03 12:40:24;;;;;;;5.22;1.15;;;18.10;99.90;;;;;;4993199;28;20046;-67
2022/10/03 12:43:08;;;;;;;6.93;1.45;;;18.00;99.90;;;;;;5009136;28;20038;-65
2022/10/03 12:45:42;;;;;;;2.67;1.35;;;18.00;99.90;;;;;;5005532;28;20029;-67
2022/10/03 12:48:26;;;;;;;3.95;1.00;;;18.00;99.90;;;;;;5021636;28;20033;-67
2022/10/03 12:51:23;;;;;;;1.75;1.05;;;17.90;99.90;;;;;;5026913;28;20049;-64
2022/10/03 12:53:48;;;;;;;3.03;1.13;;;17.90;99.90;;;;;;5021769;28;20055;-67
2022/10/03 12:56:21;;;;;;;2.65;1.13;;;17.80;99.90;;;;;;5032443;28;20101;-68
2022/10/03 12:58:53;;;;;;;6.65;2.40;;;17.80;99.90;;;;;;5032446;28;20036;-68
2022/10/03 13:01:35;;;;;;;3.72;1.25;;;17.80;99.90;;;;;;5032421;28;20064;-66
2022/10/03 13:04:30;;;;;;;4.25;1.55;;;17.90;99.90;;;;;;5020559;28;20018;-68
2022/10/03 13:07:02;;;;;;;3.67;1.20;;;17.90;99.90;;;;;;5026519;28;20120;-68
2022/10/03 13:09:57;;;;;;;2.97;1.67;;;17.80;99.90;;;;;;5024775;28;20026;-68
2022/10/03 13:12:51;;;;;;;3.00;1.45;;;17.60;99.90;;;;;;5000315;28;20076;-67
2022/10/03 13:15:39;;;;;;;1.83;1.20;;;17.50;99.90;;;;;;5013216;28;20029;-68
2022/10/03 13:18:26;;;;;;;2.92;0.80;;;17.60;99.90;;;;;;5011312;28;20028;-67
2022/10/03 13:20:51;;;;;;;3.30;1.08;;;17.50;99.90;;;;;;5011298;28;20072;-68
2022/10/03 13:23:38;;;;;;;1.95;1.20;;;17.50;99.90;;;;;;5017413;28;20022;-67
2022/10/03 13:26:10;;;;;;;1.45;1.10;;;17.80;99.90;;;;;;5011288;28;20021;-68
2022/10/03 13:29:13;;;;;;;3.67;1.40;;;17.80;99.90;;;;;;5018368;28;20069;-68
2022/10/03 13:32:24;;;;;;;6.45;1.38;;;17.90;99.90;;;;;;5003218;28;20424;-66
2022/10/03 13:38:31;;;;;;;5.70;1.25;;;18.40;99.90;;;;;;5016128;28;20038;-68
2022/10/03 13:41:15;;;;;;;2.70;1.00;;;18.40;99.90;;;;;;5018175;28;20037;-66
2022/10/03 13:43:47;;;;;;;1.33;0.90;;;18.60;99.90;;;;;;5021401;28;20022;-66
2022/10/03 13:46:18;;;;;;;;;;;18.80;99.90;;;;;;5021858;28;20464;-64
2022/10/03 13:48:57;;;;;;;8.80;1.10;;;18.60;99.90;;;;;;5026572;28;19944;-66
2022/10/03 13:51:33;;;;;;;1.95;1.20;;;18.40;99.90;;;;;;5020250;28;20052;-66
2022/10/03 13:54:06;;;;;;;8.52;1.55;;;18.20;99.90;;;;;;5014070;28;20454;-68
2022/10/03 13:56:32;;;;;;;1.58;0.77;;;18.20;99.90;;;;;;5014491;28;20083;-67
2022/10/03 13:59:35;;;;;;;2.15;0.52;;;18.10;99.90;;;;;;5018656;28;20060;-67
2022/10/03 14:02:20;;;;;;;;;;;18.00;99.90;;;;;;5011489;28;20483;-67
2022/10/03 14:05:07;;;;;;;1.52;0.85;;;18.00;99.90;;;;;;5011867;28;20051;-68
2022/10/03 14:07:57;;;;;;;1.80;0.50;;;18.10;99.90;;;;;;5032917;28;20066;-69
2022/10/03 14:11:00;;;;;;;1.27;0.60;;;18.20;99.90;;;;;;5027372;28;20026;-68
2022/10/03 14:14:04;;;;;;;4.45;0.57;;;18.30;99.90;;;;;;5030717;28;20026;-68
2022/10/03 14:16:34;;;;;;;1.38;0.75;;;18.20;99.90;;;;;;5030961;28;20021;-67
2022/10/03 14:19:03;;;;;;;2.10;0.63;;;18.10;99.90;;;;;;5030085;28;20017;-68
2022/10/03 14:21:41;;;;;;;3.88;0.60;;;18.20;99.90;;;;;;5033588;28;20037;-67
2022/10/03 14:24:44;;;;;;;2.65;0.75;;;18.10;99.90;;;;;;5029775;28;20906;-67
2022/10/03 14:27:35;;;;;;;4.03;0.70;;;18.10;99.90;;;;;;5033191;28;20032;-68
2022/10/03 14:30:28;;;;;;;2.38;1.20;;;18.10;99.90;;;;;;5030536;28;20029;-68
2022/10/03 14:32:58;;;;;;;2.10;0.70;;;18.00;99.90;;;;;;5032901;28;20506;-68
2022/10/03 14:35:37;;;;;;;5.35;0.88;;;18.00;99.90;;;;;;5033107;28;20532;-68
2022/10/03 14:38:22;;;;;;;1.52;0.60;;;18.00;99.90;;;;;;5026684;28;20041;-68
2022/10/03 14:40:50;;;;;;;0.90;0.77;;;18.00;99.90;;;;;;5030838;28;20812;-68
2022/10/03 14:43:19;;;;;;;2.17;0.90;;;18.00;99.90;;;;;;5029646;28;20041;-67